source: subversion/applications/editors/osm-editor/080505_osm.gpx @ 34668

Last change on this file since 34668 was 664, checked in by nick, 14 years ago

Changed save/load to always 'OSM' mode; changed example GPX files

File size: 12.2 KB
Line 
1<!-- This data is copyright Nick Whitelegg and licenced under the
2     Creative Commons Licence (Attribution/ShareAlike) v2.0. -->
3<gpx version="1.0" creator="Hogweed Software Freemap::Components class" xmlns="http://www.topografix.com/GPX/1/0">
4<wpt lat="50.8026" lon="-1.40008">
5<name>006</name>
6<type>waypoint</type>
7</wpt>
8<trk>
9<number>0</number>
10<extensions>
11</extensions>
12<trkseg>
13<trkpt lat="50.9064" lon="-1.41475">
14<time>2005-05-08T14:03:36Z</time>
15</trkpt>
16<trkpt lat="50.9064" lon="-1.41468">
17<time>2005-05-08T14:03:52Z</time>
18</trkpt>
19<trkpt lat="50.9065" lon="-1.41511">
20<time>2005-05-08T14:04:24Z</time>
21</trkpt>
22<trkpt lat="50.9068" lon="-1.41625">
23<time>2005-05-08T14:04:31Z</time>
24</trkpt>
25<trkpt lat="50.9068" lon="-1.41646">
26<time>2005-05-08T14:04:32Z</time>
27</trkpt>
28<trkpt lat="50.9069" lon="-1.41885">
29<time>2005-05-08T14:04:43Z</time>
30</trkpt>
31<trkpt lat="50.907" lon="-1.42237">
32<time>2005-05-08T14:04:59Z</time>
33</trkpt>
34<trkpt lat="50.9076" lon="-1.4246">
35<time>2005-05-08T14:05:09Z</time>
36</trkpt>
37<trkpt lat="50.9089" lon="-1.42831">
38<time>2005-05-08T14:05:25Z</time>
39</trkpt>
40<trkpt lat="50.9098" lon="-1.42975">
41<time>2005-05-08T14:05:33Z</time>
42</trkpt>
43<trkpt lat="50.911" lon="-1.43144">
44<time>2005-05-08T14:05:44Z</time>
45</trkpt>
46<trkpt lat="50.912" lon="-1.4341">
47<time>2005-05-08T14:05:56Z</time>
48</trkpt>
49<trkpt lat="50.9128" lon="-1.43719">
50<time>2005-05-08T14:06:10Z</time>
51</trkpt>
52<trkpt lat="50.9131" lon="-1.44045">
53<time>2005-05-08T14:06:24Z</time>
54</trkpt>
55<trkpt lat="50.9131" lon="-1.44206">
56<time>2005-05-08T14:06:33Z</time>
57</trkpt>
58<trkpt lat="50.9132" lon="-1.44266">
59<time>2005-05-08T14:06:41Z</time>
60</trkpt>
61<trkpt lat="50.9132" lon="-1.44286">
62<time>2005-05-08T14:07:00Z</time>
63</trkpt>
64<trkpt lat="50.9133" lon="-1.44399">
65<time>2005-05-08T14:07:07Z</time>
66</trkpt>
67<trkpt lat="50.9136" lon="-1.44676">
68<time>2005-05-08T14:07:20Z</time>
69</trkpt>
70<trkpt lat="50.9142" lon="-1.45024">
71<time>2005-05-08T14:07:35Z</time>
72</trkpt>
73<trkpt lat="50.9151" lon="-1.45262">
74<time>2005-05-08T14:07:46Z</time>
75</trkpt>
76<trkpt lat="50.9162" lon="-1.45485">
77<time>2005-05-08T14:07:58Z</time>
78</trkpt>
79<trkpt lat="50.9175" lon="-1.45717">
80<time>2005-05-08T14:08:11Z</time>
81</trkpt>
82<trkpt lat="50.9187" lon="-1.46039">
83<time>2005-05-08T14:08:27Z</time>
84</trkpt>
85<trkpt lat="50.9196" lon="-1.46264">
86<time>2005-05-08T14:08:41Z</time>
87</trkpt>
88<trkpt lat="50.9207" lon="-1.46498">
89<time>2005-05-08T14:08:55Z</time>
90</trkpt>
91<trkpt lat="50.9216" lon="-1.46773">
92<time>2005-05-08T14:09:08Z</time>
93</trkpt>
94<trkpt lat="50.9221" lon="-1.46977">
95<time>2005-05-08T14:09:19Z</time>
96</trkpt>
97<trkpt lat="50.9221" lon="-1.47122">
98<time>2005-05-08T14:09:28Z</time>
99</trkpt>
100<trkpt lat="50.9219" lon="-1.47215">
101<time>2005-05-08T14:09:38Z</time>
102</trkpt>
103<trkpt lat="50.9219" lon="-1.47234">
104<time>2005-05-08T14:09:48Z</time>
105</trkpt>
106<trkpt lat="50.9217" lon="-1.47311">
107<time>2005-05-08T14:09:55Z</time>
108</trkpt>
109<trkpt lat="50.921" lon="-1.4756">
110<time>2005-05-08T14:10:09Z</time>
111</trkpt>
112<trkpt lat="50.9201" lon="-1.47856">
113<time>2005-05-08T14:10:22Z</time>
114</trkpt>
115<trkpt lat="50.9192" lon="-1.47949">
116<time>2005-05-08T14:10:29Z</time>
117</trkpt>
118<trkpt lat="50.9191" lon="-1.47955">
119<time>2005-05-08T14:10:30Z</time>
120</trkpt>
121<trkpt lat="50.9178" lon="-1.48019">
122<time>2005-05-08T14:10:39Z</time>
123</trkpt>
124<trkpt lat="50.917" lon="-1.48114">
125<time>2005-05-08T14:10:45Z</time>
126</trkpt>
127<trkpt lat="50.9156" lon="-1.483">
128<time>2005-05-08T14:10:56Z</time>
129</trkpt>
130<trkpt lat="50.9146" lon="-1.48552">
131<time>2005-05-08T14:11:08Z</time>
132</trkpt>
133<trkpt lat="50.9133" lon="-1.48998">
134<time>2005-05-08T14:11:27Z</time>
135</trkpt>
136<trkpt lat="50.9128" lon="-1.49163">
137<time>2005-05-08T14:11:36Z</time>
138</trkpt>
139<trkpt lat="50.9127" lon="-1.49185">
140<time>2005-05-08T14:11:38Z</time>
141</trkpt>
142<trkpt lat="50.9125" lon="-1.49206">
143<time>2005-05-08T14:11:44Z</time>
144</trkpt>
145<trkpt lat="50.9122" lon="-1.49189">
146<time>2005-05-08T14:11:49Z</time>
147</trkpt>
148<trkpt lat="50.9108" lon="-1.49054">
149<time>2005-05-08T14:12:02Z</time>
150</trkpt>
151<trkpt lat="50.9088" lon="-1.48828">
152<time>2005-05-08T14:12:18Z</time>
153</trkpt>
154<trkpt lat="50.9077" lon="-1.48717">
155<time>2005-05-08T14:12:26Z</time>
156</trkpt>
157<trkpt lat="50.9064" lon="-1.48657">
158<time>2005-05-08T14:12:36Z</time>
159</trkpt>
160<trkpt lat="50.9063" lon="-1.48652">
161<time>2005-05-08T14:12:42Z</time>
162</trkpt>
163<trkpt lat="50.906" lon="-1.48642">
164<time>2005-05-08T14:12:54Z</time>
165</trkpt>
166<trkpt lat="50.9051" lon="-1.48614">
167<time>2005-05-08T14:13:03Z</time>
168</trkpt>
169<trkpt lat="50.9033" lon="-1.48569">
170<time>2005-05-08T14:13:18Z</time>
171</trkpt>
172<trkpt lat="50.9017" lon="-1.48502">
173<time>2005-05-08T14:13:29Z</time>
174</trkpt>
175<trkpt lat="50.9004" lon="-1.4841">
176<time>2005-05-08T14:13:38Z</time>
177</trkpt>
178<trkpt lat="50.8989" lon="-1.4817">
179<time>2005-05-08T14:13:51Z</time>
180</trkpt>
181<trkpt lat="50.8972" lon="-1.47777">
182<time>2005-05-08T14:14:07Z</time>
183</trkpt>
184<trkpt lat="50.8956" lon="-1.47446">
185<time>2005-05-08T14:14:21Z</time>
186</trkpt>
187<trkpt lat="50.8938" lon="-1.47148">
188<time>2005-05-08T14:14:36Z</time>
189</trkpt>
190<trkpt lat="50.8915" lon="-1.46828">
191<time>2005-05-08T14:14:54Z</time>
192</trkpt>
193<trkpt lat="50.8893" lon="-1.4653">
194<time>2005-05-08T14:15:12Z</time>
195</trkpt>
196<trkpt lat="50.8876" lon="-1.46271">
197<time>2005-05-08T14:15:25Z</time>
198</trkpt>
199<trkpt lat="50.8863" lon="-1.45985">
200<time>2005-05-08T14:15:38Z</time>
201</trkpt>
202<trkpt lat="50.8854" lon="-1.45678">
203<time>2005-05-08T14:15:51Z</time>
204</trkpt>
205<trkpt lat="50.8846" lon="-1.45268">
206<time>2005-05-08T14:16:07Z</time>
207</trkpt>
208<trkpt lat="50.8838" lon="-1.44753">
209<time>2005-05-08T14:16:26Z</time>
210</trkpt>
211<trkpt lat="50.8837" lon="-1.44728">
212<time>2005-05-08T14:16:27Z</time>
213</trkpt>
214<trkpt lat="50.8832" lon="-1.4458">
215<time>2005-05-08T14:16:33Z</time>
216</trkpt>
217<trkpt lat="50.8818" lon="-1.44367">
218<time>2005-05-08T14:16:44Z</time>
219</trkpt>
220<trkpt lat="50.8804" lon="-1.4426">
221<time>2005-05-08T14:16:53Z</time>
222</trkpt>
223<trkpt lat="50.8798" lon="-1.44223">
224<time>2005-05-08T14:16:57Z</time>
225</trkpt>
226<trkpt lat="50.8778" lon="-1.442">
227<time>2005-05-08T14:17:08Z</time>
228</trkpt>
229<trkpt lat="50.8753" lon="-1.44144">
230<time>2005-05-08T14:17:22Z</time>
231</trkpt>
232<trkpt lat="50.8742" lon="-1.44069">
233<time>2005-05-08T14:17:30Z</time>
234</trkpt>
235<trkpt lat="50.874" lon="-1.44054">
236<time>2005-05-08T14:17:32Z</time>
237</trkpt>
238<trkpt lat="50.8737" lon="-1.44015">
239<time>2005-05-08T14:17:36Z</time>
240</trkpt>
241<trkpt lat="50.8736" lon="-1.43992">
242<time>2005-05-08T14:17:38Z</time>
243</trkpt>
244<trkpt lat="50.8732" lon="-1.43977">
245<time>2005-05-08T14:17:42Z</time>
246</trkpt>
247<trkpt lat="50.8722" lon="-1.43932">
248<time>2005-05-08T14:17:50Z</time>
249</trkpt>
250<trkpt lat="50.8706" lon="-1.4388">
251<time>2005-05-08T14:18:00Z</time>
252</trkpt>
253<trkpt lat="50.8676" lon="-1.43829">
254<time>2005-05-08T14:18:19Z</time>
255</trkpt>
256<trkpt lat="50.866" lon="-1.43741">
257<time>2005-05-08T14:18:29Z</time>
258</trkpt>
259<trkpt lat="50.8647" lon="-1.43597">
260<time>2005-05-08T14:18:39Z</time>
261</trkpt>
262<trkpt lat="50.8639" lon="-1.43515">
263<time>2005-05-08T14:18:47Z</time>
264</trkpt>
265<trkpt lat="50.8638" lon="-1.43511">
266<time>2005-05-08T14:18:48Z</time>
267</trkpt>
268<trkpt lat="50.8636" lon="-1.43479">
269<time>2005-05-08T14:18:52Z</time>
270</trkpt>
271<trkpt lat="50.8632" lon="-1.43436">
272<time>2005-05-08T14:18:57Z</time>
273</trkpt>
274<trkpt lat="50.8622" lon="-1.43307">
275<time>2005-05-08T14:19:06Z</time>
276</trkpt>
277<trkpt lat="50.8601" lon="-1.43054">
278<time>2005-05-08T14:19:21Z</time>
279</trkpt>
280<trkpt lat="50.8576" lon="-1.42751">
281<time>2005-05-08T14:19:38Z</time>
282</trkpt>
283<trkpt lat="50.8545" lon="-1.42389">
284<time>2005-05-08T14:19:59Z</time>
285</trkpt>
286<trkpt lat="50.8524" lon="-1.42101">
287<time>2005-05-08T14:20:15Z</time>
288</trkpt>
289<trkpt lat="50.8515" lon="-1.41932">
290<time>2005-05-08T14:20:25Z</time>
291</trkpt>
292<trkpt lat="50.8513" lon="-1.41895">
293<time>2005-05-08T14:20:28Z</time>
294</trkpt>
295<trkpt lat="50.8512" lon="-1.4185">
296<time>2005-05-08T14:20:33Z</time>
297</trkpt>
298<trkpt lat="50.8512" lon="-1.41807">
299<time>2005-05-08T14:20:36Z</time>
300</trkpt>
301<trkpt lat="50.8508" lon="-1.41749">
302<time>2005-05-08T14:20:43Z</time>
303</trkpt>
304<trkpt lat="50.8506" lon="-1.4179">
305<time>2005-05-08T14:20:47Z</time>
306</trkpt>
307<trkpt lat="50.8506" lon="-1.41822">
308<time>2005-05-08T14:20:49Z</time>
309</trkpt>
310<trkpt lat="50.8503" lon="-1.41915">
311<time>2005-05-08T14:20:55Z</time>
312</trkpt>
313<trkpt lat="50.8489" lon="-1.42136">
314<time>2005-05-08T14:21:08Z</time>
315</trkpt>
316<trkpt lat="50.8475" lon="-1.42312">
317<time>2005-05-08T14:21:20Z</time>
318</trkpt>
319<trkpt lat="50.846" lon="-1.42382">
320<time>2005-05-08T14:21:31Z</time>
321</trkpt>
322<trkpt lat="50.8427" lon="-1.42522">
323<time>2005-05-08T14:21:53Z</time>
324</trkpt>
325<trkpt lat="50.8395" lon="-1.42661">
326<time>2005-05-08T14:22:16Z</time>
327</trkpt>
328<trkpt lat="50.8361" lon="-1.42807">
329<time>2005-05-08T14:22:40Z</time>
330</trkpt>
331<trkpt lat="50.8324" lon="-1.42964">
332<time>2005-05-08T14:23:05Z</time>
333</trkpt>
334<trkpt lat="50.8292" lon="-1.43103">
335<time>2005-05-08T14:23:27Z</time>
336</trkpt>
337<trkpt lat="50.8277" lon="-1.43168">
338<time>2005-05-08T14:23:39Z</time>
339</trkpt>
340<trkpt lat="50.8276" lon="-1.43174">
341<time>2005-05-08T14:23:41Z</time>
342</trkpt>
343<trkpt lat="50.8274" lon="-1.43146">
344<time>2005-05-08T14:23:47Z</time>
345</trkpt>
346<trkpt lat="50.8271" lon="-1.43125">
347<time>2005-05-08T14:23:52Z</time>
348</trkpt>
349<trkpt lat="50.8266" lon="-1.43084">
350<time>2005-05-08T14:23:58Z</time>
351</trkpt>
352<trkpt lat="50.8253" lon="-1.42902">
353<time>2005-05-08T14:24:12Z</time>
354</trkpt>
355<trkpt lat="50.8234" lon="-1.42621">
356<time>2005-05-08T14:24:33Z</time>
357</trkpt>
358<trkpt lat="50.8218" lon="-1.42393">
359<time>2005-05-08T14:24:50Z</time>
360</trkpt>
361<trkpt lat="50.8196" lon="-1.42082">
362<time>2005-05-08T14:25:14Z</time>
363</trkpt>
364<trkpt lat="50.8174" lon="-1.41842">
365<time>2005-05-08T14:25:36Z</time>
366</trkpt>
367<trkpt lat="50.8164" lon="-1.41719">
368<time>2005-05-08T14:25:48Z</time>
369</trkpt>
370<trkpt lat="50.8155" lon="-1.41573">
371<time>2005-05-08T14:26:01Z</time>
372</trkpt>
373<trkpt lat="50.815" lon="-1.41501">
374<time>2005-05-08T14:26:08Z</time>
375</trkpt>
376<trkpt lat="50.8135" lon="-1.41226">
377<time>2005-05-08T14:26:29Z</time>
378</trkpt>
379<trkpt lat="50.8111" lon="-1.40852">
380<time>2005-05-08T14:26:59Z</time>
381</trkpt>
382<trkpt lat="50.8089" lon="-1.40544">
383<time>2005-05-08T14:27:24Z</time>
384</trkpt>
385<trkpt lat="50.8086" lon="-1.40473">
386<time>2005-05-08T14:27:29Z</time>
387</trkpt>
388<trkpt lat="50.8078" lon="-1.40372">
389<time>2005-05-08T14:27:38Z</time>
390</trkpt>
391<trkpt lat="50.8073" lon="-1.40303">
392<time>2005-05-08T14:27:44Z</time>
393</trkpt>
394<trkpt lat="50.8066" lon="-1.402">
395<time>2005-05-08T14:27:52Z</time>
396</trkpt>
397<trkpt lat="50.805" lon="-1.39919">
398<time>2005-05-08T14:28:12Z</time>
399</trkpt>
400<trkpt lat="50.8043" lon="-1.39823">
401<time>2005-05-08T14:28:20Z</time>
402</trkpt>
403<trkpt lat="50.8028" lon="-1.3978">
404<time>2005-05-08T14:28:37Z</time>
405</trkpt>
406<trkpt lat="50.8027" lon="-1.39775">
407<time>2005-05-08T14:28:42Z</time>
408</trkpt>
409<trkpt lat="50.8027" lon="-1.39773">
410<time>2005-05-08T14:28:44Z</time>
411</trkpt>
412<trkpt lat="50.8026" lon="-1.39784">
413<time>2005-05-08T14:28:47Z</time>
414</trkpt>
415<trkpt lat="50.8027" lon="-1.39825">
416<time>2005-05-08T14:28:55Z</time>
417</trkpt>
418<trkpt lat="50.8028" lon="-1.39831">
419<time>2005-05-08T14:29:01Z</time>
420</trkpt>
421<trkpt lat="50.8029" lon="-1.39833">
422<time>2005-05-08T14:29:16Z</time>
423</trkpt>
424<trkpt lat="50.8029" lon="-1.39838">
425<time>2005-05-08T14:29:37Z</time>
426</trkpt>
427<trkpt lat="50.803" lon="-1.39833">
428<time>2005-05-08T14:30:32Z</time>
429</trkpt>
430<trkpt lat="50.803" lon="-1.39831">
431<time>2005-05-08T14:31:06Z</time>
432</trkpt>
433<trkpt lat="50.803" lon="-1.39835">
434<time>2005-05-08T14:32:37Z</time>
435</trkpt>
436<trkpt lat="50.8029" lon="-1.3985">
437<time>2005-05-08T14:32:56Z</time>
438</trkpt>
439<trkpt lat="50.8029" lon="-1.39878">
440<time>2005-05-08T14:33:16Z</time>
441</trkpt>
442<trkpt lat="50.8029" lon="-1.39883">
443<time>2005-05-08T14:33:19Z</time>
444</trkpt>
445<trkpt lat="50.8028" lon="-1.39902">
446<time>2005-05-08T14:33:36Z</time>
447</trkpt>
448<trkpt lat="50.8028" lon="-1.39908">
449<time>2005-05-08T14:33:42Z</time>
450</trkpt>
451<trkpt lat="50.8027" lon="-1.39906">
452<time>2005-05-08T14:33:48Z</time>
453</trkpt>
454<trkpt lat="50.8026" lon="-1.39904">
455<time>2005-05-08T14:34:06Z</time>
456</trkpt>
457<trkpt lat="50.8025" lon="-1.39906">
458<time>2005-05-08T14:34:11Z</time>
459</trkpt>
460<trkpt lat="50.8024" lon="-1.39951">
461<time>2005-05-08T14:34:34Z</time>
462</trkpt>
463<trkpt lat="50.8025" lon="-1.3999">
464<time>2005-05-08T14:34:56Z</time>
465</trkpt>
466<trkpt lat="50.8026" lon="-1.40009">
467<time>2005-05-08T14:35:10Z</time>
468</trkpt>
469</trkseg>
470</trk>
471</gpx>
Note: See TracBrowser for help on using the repository browser.